Time;durP1;ratioP1;P1;durP2;ratioP2;P2;SDS_P1;SDS_P2;PMS_P1;PMS_P2;Temp;Humidity;BMP_temperature;BMP_pressure;BME280_temperature;BME280_humidity;BME280_pressure;Samples;Min_cycle;Max_cycle;Signal;HPM_P1;HPM_P2
2023/05/04 00:00:10;;;;;;;;;19.20;18.40;;;;;14.83;43.01;99620.41;5062108;28;8885;-81
2023/05/04 00:02:59;;;;;;;;;18.40;17.60;;;;;14.67;43.62;99627.13;5021045;28;8973;-80
2023/05/04 00:05:29;;;;;;;;;21.00;19.20;;;;;14.64;43.44;99619.31;5081652;28;8841;-80
2023/05/04 00:07:58;;;;;;;;;23.20;21.60;;;;;14.62;43.62;99621.13;5049852;28;8895;-81
2023/05/04 00:10:27;;;;;;;;;18.80;18.00;;;;;14.70;43.42;99619.09;5048418;28;8841;-81
2023/05/04 00:12:56;;;;;;;;;20.00;19.00;;;;;14.56;43.65;99616.94;5031817;28;8876;-80
2023/05/04 00:15:26;;;;;;;;;20.00;17.80;;;;;14.49;44.00;99620.75;5026951;28;8855;-80
2023/05/04 00:17:55;;;;;;;;;24.60;21.80;;;;;14.43;44.17;99621.84;5033940;28;9019;-80
2023/05/04 00:20:24;;;;;;;;;21.20;21.00;;;;;14.51;44.33;99618.03;5029853;28;8884;-80
2023/05/04 00:22:55;;;;;;;;;21.20;19.40;;;;;14.39;44.29;99614.91;5029840;28;8988;-79
2023/05/04 00:25:24;;;;;;;;;23.00;22.75;;;;;14.08;45.63;99620.41;5030196;28;8856;-80
2023/05/04 00:27:52;;;;;;;;;23.80;22.60;;;;;13.96;46.04;99612.88;5030088;28;9646;-80
2023/05/04 00:30:22;;;;;;;;;22.00;21.20;;;;;13.95;46.13;99621.75;5046803;28;8901;-79
2023/05/04 00:32:50;;;;;;;;;22.00;21.00;;;;;13.88;46.47;99619.31;5013719;28;8899;-80
2023/05/04 00:35:19;;;;;;;;;21.00;21.00;;;;;13.86;46.72;99620.25;5029638;28;8848;-81
2023/05/04 00:37:48;;;;;;;;;22.60;21.20;;;;;13.91;46.58;99613.06;5026907;28;9000;-80
2023/05/04 00:40:19;;;;;;;;;20.80;19.60;;;;;13.81;47.00;99619.53;5012446;28;8844;-80
2023/05/04 00:42:48;;;;;;;;;29.00;24.50;;;;;13.66;47.55;99619.13;5035795;28;8848;-81
2023/05/04 00:45:17;;;;;;;;;24.50;23.75;;;;;13.66;47.78;99619.13;5026885;28;8848;-79
2023/05/04 00:47:46;;;;;;;;;21.60;21.20;;;;;13.64;47.89;99614.81;5027027;28;8864;-81
2023/05/04 00:50:15;;;;;;;;;18.60;18.20;;;;;13.67;48.10;99615.53;5001718;28;8837;-80
2023/05/04 00:52:45;;;;;;;;;22.00;21.40;;;;;13.43;49.10;99618.97;5019880;28;9645;-80
2023/05/04 00:55:15;;;;;;;;;23.00;21.80;;;;;13.41;49.55;99619.06;5069117;28;8859;-83
2023/05/04 00:57:45;;;;;;;;;20.80;19.60;;;;;13.34;49.90;99619.28;5068398;28;8945;-81
2023/05/04 01:00:14;;;;;;;;;22.40;18.60;;;;;13.39;49.65;99620.00;5068997;28;8843;-80
2023/05/04 01:02:43;;;;;;;;;23.00;21.40;;;;;13.33;49.86;99617.56;5067856;28;8884;-80
2023/05/04 01:05:12;;;;;;;;;17.40;15.80;;;;;13.40;50.00;99614.66;5049917;28;8850;-81
2023/05/04 01:07:52;;;;;;;;;21.40;20.80;;;;;13.40;49.99;99616.44;5050907;28;8873;-81
2023/05/04 01:10:27;;;;;;;;;20.20;18.40;;;;;13.27;50.52;99616.81;5068572;28;8858;-81
2023/05/04 01:13:04;;;;;;;;;17.60;17.60;;;;;13.31;50.53;99610.53;5068617;28;8875;-79
2023/05/04 01:15:34;;;;;;;;;14.60;14.60;;;;;13.21;51.15;99617.03;5067417;28;8927;-80
2023/05/04 01:18:03;;;;;;;;;20.20;18.60;;;;;13.15;51.36;99614.56;5051477;28;8861;-79
2023/05/04 01:20:34;;;;;;;;;18.40;17.80;;;;;13.25;51.11;99607.22;5047520;28;8853;-81
2023/05/04 01:23:04;;;;;;;;;15.00;14.60;;;;;13.17;51.54;99607.47;5060028;28;8897;-81
2023/05/04 01:25:38;;;;;;;;;15.00;14.60;;;;;13.15;51.89;99608.41;5071193;28;8839;-81
2023/05/04 01:28:12;;;;;;;;;15.20;15.20;;;;;13.03;52.65;99609.66;5051016;28;8866;-79
2023/05/04 01:30:45;;;;;;;;;17.40;17.40;;;;;12.99;52.51;99610.66;5048744;28;8851;-80
2023/05/04 01:33:16;;;;;;;;;14.80;14.00;;;;;12.95;53.13;99606.38;5013922;28;8903;-81
2023/05/04 01:35:46;;;;;;;;;16.60;15.00;;;;;12.98;53.06;99611.59;5036724;28;9058;-81
2023/05/04 01:38:16;;;;;;;;;15.00;14.60;;;;;12.89;53.61;99610.06;5068938;28;9623;-80
2023/05/04 01:40:45;;;;;;;;;15.20;14.80;;;;;12.91;53.51;99608.25;5056613;28;8869;-80
2023/05/04 01:43:13;;;;;;;;;18.40;15.00;;;;;12.83;53.97;99607.59;5060192;28;8859;-80
2023/05/04 01:45:42;;;;;;;;;14.00;13.00;;;;;12.74;53.88;99603.44;5067014;28;9024;-80
2023/05/04 01:48:12;;;;;;;;;13.60;13.60;;;;;12.75;54.51;99610.47;5067898;28;8842;-81
2023/05/04 01:50:41;;;;;;;;;9.80;9.80;;;;;12.77;54.02;99610.38;5067253;28;8861;-81
2023/05/04 01:53:10;;;;;;;;;14.40;13.20;;;;;12.78;54.03;99617.41;5068598;28;8850;-80
2023/05/04 01:55:41;;;;;;;;;11.80;11.40;;;;;12.72;54.19;99611.38;5067193;28;9613;-79
2023/05/04 01:58:09;;;;;;;;;9.00;9.00;;;;;12.63;54.70;99608.16;5034384;28;8854;-79
2023/05/04 02:00:38;;;;;;;;;14.00;13.20;;;;;12.65;55.13;99608.97;5028968;28;8850;-79
2023/05/04 02:03:08;;;;;;;;;13.80;9.40;;;;;12.63;55.11;99602.88;5003838;28;8927;-81
2023/05/04 02:05:37;;;;;;;;;11.00;11.00;;;;;12.61;55.17;99609.97;5029015;28;8842;-80
2023/05/04 02:08:06;;;;;;;;;11.20;10.60;;;;;12.73;54.74;99609.59;5029143;28;8878;-80
2023/05/04 02:10:35;;;;;;;;;11.20;10.80;;;;;12.71;55.04;99606.16;5028800;28;8866;-80
2023/05/04 02:13:05;;;;;;;;;12.20;11.20;;;;;12.73;55.22;99609.59;5029555;28;8854;-80
2023/05/04 02:15:34;;;;;;;;;10.60;10.40;;;;;12.68;55.15;99608.91;5012798;28;8919;-81
2023/05/04 02:18:03;;;;;;;;;12.60;11.20;;;;;12.66;55.46;99613.34;5045405;28;8857;-81
2023/05/04 02:20:32;;;;;;;;;12.00;12.00;;;;;12.50;56.03;99611.16;5028673;28;9677;-80
2023/05/04 02:23:01;;;;;;;;;13.00;12.00;;;;;12.66;56.00;99619.47;5044984;28;8847;-80
2023/05/04 02:25:30;;;;;;;;;9.40;8.40;;;;;12.67;56.06;99621.19;5028902;28;8846;-79
2023/05/04 02:27:59;;;;;;;;;12.20;11.80;;;;;12.77;55.49;99621.81;5038601;28;8984;-80
2023/05/04 02:30:30;;;;;;;;;12.60;12.60;;;;;12.85;55.33;99625.13;5061522;28;8858;-79
2023/05/04 02:32:58;;;;;;;;;17.00;14.40;;;;;12.78;55.35;99636.72;4999443;28;8888;-79
2023/05/04 02:35:27;;;;;;;;;11.60;11.00;;;;;12.82;55.14;99634.88;5068302;28;8893;-81
2023/05/04 02:37:56;;;;;;;;;15.20;12.80;;;;;12.90;54.70;99638.16;5067263;28;8839;-80
2023/05/04 02:40:25;;;;;;;;;15.00;13.20;;;;;12.84;54.66;99641.84;5066218;28;8909;-81
2023/05/04 02:42:54;;;;;;;;;11.40;11.40;;;;;12.89;54.68;99647.00;5067166;28;8854;-79
2023/05/04 02:45:23;;;;;;;;;17.80;15.80;;;;;12.93;54.40;99648.66;5063739;28;8849;-79
2023/05/04 02:47:53;;;;;;;;;16.20;15.60;;;;;12.99;54.54;99647.59;5062775;28;9052;-80
2023/05/04 02:50:22;;;;;;;;;15.40;13.80;;;;;13.03;54.06;99650.09;5046384;28;8849;-79
2023/05/04 02:52:51;;;;;;;;;14.80;14.60;;;;;13.07;54.18;99650.88;4996934;28;8833;-79
2023/05/04 02:55:20;;;;;;;;;13.80;13.80;;;;;13.13;54.32;99642.78;5061874;28;8869;-79
2023/05/04 02:57:49;;;;;;;;;14.60;13.40;;;;;13.17;54.07;99644.44;5067435;28;8874;-78
2023/05/04 03:00:18;;;;;;;;;17.00;16.80;;;;;13.09;54.23;99643.75;5066439;28;8877;-79
2023/05/04 03:02:47;;;;;;;;;13.60;13.60;;;;;13.02;54.31;99652.81;5048671;28;8989;-80
2023/05/04 03:05:17;;;;;;;;;14.60;14.60;;;;;13.06;54.42;99647.38;5048684;28;8858;-80
2023/05/04 03:07:46;;;;;;;;;30.20;28.40;;;;;13.05;55.04;99650.94;5067654;28;9728;-81
2023/05/04 03:10:15;;;;;;;;;41.25;35.00;;;;;13.08;54.97;99648.19;5062416;28;8845;-80
2023/05/04 03:12:45;;;;;;;;;17.80;17.80;;;;;13.08;55.02;99648.19;5046168;28;8849;-81
2023/05/04 03:15:14;;;;;;;;;16.20;16.20;;;;;13.03;54.73;99647.44;5047750;28;8864;-79
2023/05/04 03:17:43;;;;;;;;;13.40;12.80;;;;;12.94;55.31;99647.75;5044620;28;8886;-80
2023/05/04 03:20:13;;;;;;;;;13.20;13.20;;;;;12.93;55.01;99641.59;5044704;28;8871;-79
2023/05/04 03:22:44;;;;;;;;;18.20;16.40;;;;;12.90;54.94;99651.38;5011603;28;8862;-80
2023/05/04 03:25:13;;;;;;;;;16.60;16.20;;;;;12.85;54.87;99656.78;5028425;28;9634;-81
2023/05/04 03:27:42;;;;;;;;;39.75;35.75;;;;;12.89;54.68;99653.16;5028100;28;8903;-79
2023/05/04 03:30:12;;;;;;;;;13.40;12.60;;;;;12.86;55.13;99650.63;5036666;28;8862;-81
2023/05/04 03:32:42;;;;;;;;;16.40;15.00;;;;;12.85;55.00;99656.78;4993856;28;8869;-81
2023/05/04 03:35:11;;;;;;;;;16.60;16.20;;;;;12.80;55.31;99652.50;5041191;28;9048;-81
2023/05/04 03:37:41;;;;;;;;;15.00;13.00;;;;;12.65;55.37;99657.31;5043023;28;8956;-82
2023/05/04 03:40:12;;;;;;;;;15.80;15.80;;;;;12.78;55.30;99656.97;5043529;28;8850;-81
2023/05/04 03:42:41;;;;;;;;;14.00;14.00;;;;;12.80;55.30;99661.28;4979063;28;9643;-80
2023/05/04 03:45:11;;;;;;;;;15.40;15.40;;;;;12.79;55.21;99656.03;5043404;28;8858;-81
2023/05/04 03:47:39;;;;;;;;;29.80;26.40;;;;;12.73;55.33;99660.59;5010201;28;8874;-82
2023/05/04 03:50:09;;;;;;;;;17.60;16.60;;;;;12.72;55.42;99660.66;5026625;28;8853;-83
2023/05/04 03:52:38;;;;;;;;;14.00;14.00;;;;;12.73;55.53;99665.88;5046396;28;8869;-80
2023/05/04 03:55:09;;;;;;;;;18.60;16.00;;;;;12.61;55.71;99662.72;5030779;28;8841;-80
2023/05/04 03:57:40;;;;;;;;;14.60;14.00;;;;;12.62;55.42;99656.53;5027100;28;8874;-80
2023/05/04 04:00:10;;;;;;;;;24.00;23.80;;;;;12.51;55.65;99667.38;5010803;28;8903;-81
2023/05/04 04:02:42;;;;;;;;;13.20;13.20;;;;;12.55;55.80;99661.09;5027551;28;8971;-82
2023/05/04 04:05:18;;;;;;;;;21.00;21.00;;;;;12.49;56.03;99662.16;4994458;28;8946;-80
2023/05/04 04:07:48;;;;;;;;;15.00;13.40;;;;;12.50;55.67;99670.91;5027343;28;8837;-80
2023/05/04 04:10:18;;;;;;;;;12.60;12.00;;;;;12.43;56.22;99664.94;5036079;28;8935;-80
2023/05/04 04:12:48;;;;;;;;;13.40;13.40;;;;;12.54;55.71;99673.44;5050590;28;8896;-79
2023/05/04 04:15:17;;;;;;;;;29.25;29.00;;;;;12.44;56.11;99666.66;5057816;28;8861;-79
2023/05/04 04:17:46;;;;;;;;;14.80;12.40;;;;;12.41;55.67;99664.13;5057410;28;8848;-80
2023/05/04 04:20:15;;;;;;;;;13.60;12.60;;;;;12.42;55.98;99673.75;5067475;28;8856;-79
2023/05/04 04:22:43;;;;;;;;;12.00;12.00;;;;;12.44;55.81;99679.00;5000763;28;8864;-80
2023/05/04 04:25:12;;;;;;;;;15.20;12.60;;;;;12.40;55.86;99675.56;5066498;28;8860;-81
2023/05/04 04:27:41;;;;;;;;;10.00;9.20;;;;;12.33;56.06;99674.88;5067207;28;8860;-80
2023/05/04 04:30:13;;;;;;;;;10.20;10.00;;;;;12.31;56.20;99670.53;5030567;28;8945;-82
2023/05/04 04:32:41;;;;;;;;;13.00;11.00;;;;;12.39;55.71;99670.31;5012451;28;8995;-80
2023/05/04 04:35:10;;;;;;;;;11.80;11.80;;;;;12.34;56.06;99671.31;4994529;28;8859;-80
2023/05/04 04:37:39;;;;;;;;;11.00;10.00;;;;;12.44;55.47;99665.81;4994360;28;8868;-80
2023/05/04 04:40:09;;;;;;;;;13.20;13.20;;;;;12.45;55.70;99668.41;4997421;28;8877;-80
2023/05/04 04:42:38;;;;;;;;;13.40;11.60;;;;;12.49;55.10;99672.69;5014134;28;8903;-82
2023/05/04 04:45:08;;;;;;;;;12.20;12.20;;;;;12.48;55.08;99670.09;4998285;28;8868;-83
2023/05/04 04:47:39;;;;;;;;;12.40;11.80;;;;;12.44;55.65;99677.22;4981768;28;8936;-80
2023/05/04 04:50:08;;;;;;;;;10.40;10.40;;;;;12.26;55.45;99677.72;5047399;28;8902;-80
2023/05/04 04:52:39;;;;;;;;;12.40;12.00;;;;;12.42;54.92;99679.03;5017154;28;9602;-80
2023/05/04 04:55:09;;;;;;;;;8.80;8.60;;;;;12.40;54.84;99679.97;5068307;28;8851;-81
2023/05/04 04:57:38;;;;;;;;;9.60;9.20;;;;;12.40;54.25;99688.75;5048801;28;8824;-80
2023/05/04 05:00:08;;;;;;;;;9.20;9.20;;;;;12.36;54.27;99696.78;5067790;28;8863;-81
2023/05/04 05:02:38;;;;;;;;;8.60;7.60;;;;;12.47;54.69;99694.75;5050035;28;8872;-80
2023/05/04 05:05:08;;;;;;;;;9.20;9.20;;;;;12.34;54.99;99687.13;5049519;28;9617;-80
2023/05/04 05:07:37;;;;;;;;;12.60;9.40;;;;;12.50;54.67;99692.00;5065435;28;8937;-80
2023/05/04 05:10:08;;;;;;;;;10.00;9.00;;;;;12.61;54.36;99686.44;5049471;28;8844;-80
2023/05/04 05:12:37;;;;;;;;;8.80;8.80;;;;;12.74;53.96;99701.03;5047910;28;8860;-81
2023/05/04 05:15:07;;;;;;;;;10.60;8.20;;;;;12.64;54.24;99695.16;5049078;28;8851;-80
2023/05/04 05:17:36;;;;;;;;;9.40;9.00;;;;;12.70;53.98;99700.25;5032289;28;8988;-82
2023/05/04 05:20:09;;;;;;;;;13.00;10.60;;;;;12.71;53.67;99701.09;5065727;28;8836;-82
2023/05/04 05:22:38;;;;;;;;;10.00;10.00;;;;;12.73;53.89;99705.44;5048342;28;8978;-81
2023/05/04 05:25:07;;;;;;;;;10.60;10.60;;;;;12.76;54.27;99711.53;5048213;28;8842;-80
2023/05/04 05:27:36;;;;;;;;;9.80;9.80;;;;;12.87;53.53;99710.38;5027951;28;8907;-82
2023/05/04 05:30:08;;;;;;;;;9.40;9.40;;;;;12.88;54.05;99716.50;5029782;28;8993;-80
2023/05/04 05:32:37;;;;;;;;;11.20;9.60;;;;;12.77;53.76;99716.78;5065393;28;8877;-82
2023/05/04 05:35:09;;;;;;;;;13.00;13.00;;;;;12.85;53.94;99719.25;5067028;28;8839;-80
2023/05/04 05:37:38;;;;;;;;;12.00;10.00;;;;;12.93;53.96;99717.25;5047839;28;8930;-76
2023/05/04 05:40:08;;;;;;;;;5.80;5.80;;;;;13.00;52.92;99716.16;5035093;28;8935;-75
2023/05/04 05:42:37;;;;;;;;;11.20;10.60;;;;;13.11;52.63;99715.88;5011926;28;9685;-75
2023/05/04 05:45:06;;;;;;;;;9.00;9.00;;;;;13.15;52.83;99709.59;5045029;28;8888;-74
2023/05/04 05:47:35;;;;;;;;;10.40;9.80;;;;;13.16;52.37;99718.38;5012157;28;8852;-74
2023/05/04 05:50:06;;;;;;;;;9.60;9.60;;;;;13.18;52.92;99714.75;5026468;28;8876;-74
2023/05/04 05:52:36;;;;;;;;;9.80;9.80;;;;;13.24;52.16;99725.16;5041318;28;8865;-74
2023/05/04 05:55:05;;;;;;;;;12.00;11.40;;;;;13.16;52.42;99727.16;5027686;28;8860;-73
2023/05/04 05:57:34;;;;;;;;;11.60;11.60;;;;;13.25;51.85;99721.59;5044934;28;8999;-76
2023/05/04 06:00:05;;;;;;;;;10.40;10.40;;;;;13.31;51.81;99729.34;5044452;28;8864;-73
2023/05/04 06:02:39;;;;;;;;;12.40;10.80;;;;;13.37;51.68;99727.44;5045084;28;8867;-74
2023/05/04 06:05:09;;;;;;;;;11.00;9.60;;;;;13.47;51.60;99739.47;5030712;28;8830;-74
2023/05/04 06:07:39;;;;;;;;;11.40;10.40;;;;;13.60;51.49;99729.38;5035928;28;8869;-74
2023/05/04 06:10:09;;;;;;;;;12.00;11.00;;;;;13.69;51.38;99731.72;5037321;28;8851;-75
2023/05/04 06:12:38;;;;;;;;;13.00;12.00;;;;;13.87;50.67;99740.91;5039304;28;8982;-74
2023/05/04 06:15:08;;;;;;;;;14.00;14.00;;;;;13.82;50.48;99741.03;5040608;28;8928;-75
2023/05/04 06:17:36;;;;;;;;;12.40;11.00;;;;;13.77;50.95;99742.06;5050369;28;8891;-73
2023/05/04 06:20:07;;;;;;;;;12.00;12.00;;;;;13.79;50.58;99746.41;5039023;28;8911;-73
2023/05/04 06:22:35;;;;;;;;;10.60;10.60;;;;;13.79;50.79;99742.88;5059918;28;8866;-75
2023/05/04 06:25:06;;;;;;;;;10.40;9.40;;;;;13.73;51.23;99758.94;5048166;28;8858;-76
2023/05/04 06:27:35;;;;;;;;;11.20;11.20;;;;;13.66;51.01;99755.63;5050806;28;8869;-74
2023/05/04 06:30:06;;;;;;;;;12.80;12.80;;;;;13.81;50.89;99757.81;5064533;28;8939;-76
2023/05/04 06:32:35;;;;;;;;;10.80;10.80;;;;;14.01;50.05;99757.19;5064424;28;8866;-76
2023/05/04 06:35:07;;;;;;;;;11.40;11.40;;;;;14.01;50.11;99756.31;5039611;28;8841;-76
2023/05/04 06:37:36;;;;;;;;;12.00;12.00;;;;;14.19;49.75;99762.81;5012780;28;9787;-75
2023/05/04 06:40:08;;;;;;;;;11.00;10.80;;;;;14.06;49.17;99757.91;5040470;28;8845;-75
2023/05/04 06:42:37;;;;;;;;;10.00;9.00;;;;;14.16;48.76;99768.19;5058004;28;8842;-76
2023/05/04 06:45:07;;;;;;;;;9.80;9.80;;;;;14.01;48.71;99765.09;5027852;28;9080;-75
2023/05/04 06:47:36;;;;;;;;;11.00;10.00;;;;;14.11;48.18;99760.44;5059990;28;9684;-75
2023/05/04 06:50:09;;;;;;;;;11.80;11.80;;;;;14.04;48.15;99767.66;5066624;28;8839;-75
2023/05/04 06:52:39;;;;;;;;;10.00;9.20;;;;;13.84;48.22;99770.06;5065539;28;8859;-74
2023/05/04 06:55:09;;;;;;;;;12.00;10.60;;;;;13.88;48.24;99762.00;5066017;28;8989;-74
2023/05/04 06:57:38;;;;;;;;;9.20;9.00;;;;;13.88;48.03;99774.34;5066426;28;8862;-74
2023/05/04 07:00:09;;;;;;;;;8.80;8.80;;;;;13.97;47.69;99779.34;5066963;28;8869;-74
2023/05/04 07:02:38;;;;;;;;;9.40;9.40;;;;;14.08;47.53;99774.59;5016221;28;8850;-75
2023/05/04 07:05:07;;;;;;;;;9.80;9.80;;;;;14.26;47.16;99772.25;5065813;28;8838;-73
2023/05/04 07:07:36;;;;;;;;;8.00;7.80;;;;;14.20;46.84;99769.81;5048520;28;9000;-74
2023/05/04 07:10:07;;;;;;;;;7.60;7.60;;;;;13.94;46.67;99774.16;5067111;28;8935;-76
2023/05/04 07:12:37;;;;;;;;;9.00;9.00;;;;;14.07;46.51;99769.34;5065325;28;8862;-73
2023/05/04 07:15:07;;;;;;;;;8.80;8.20;;;;;14.03;46.73;99781.78;5067095;28;8850;-74
2023/05/04 07:17:36;;;;;;;;;4.20;4.20;;;;;14.13;46.55;99777.09;5066764;28;8985;-73
2023/05/04 07:20:07;;;;;;;;;7.00;7.00;;;;;14.28;46.45;99789.81;5065864;28;8858;-76
2023/05/04 07:22:36;;;;;;;;;6.40;6.40;;;;;14.38;45.68;99784.22;5052449;28;8966;-75
2023/05/04 07:25:05;;;;;;;;;6.40;6.20;;;;;14.54;45.41;99779.28;5045625;28;8877;-74
2023/05/04 07:27:34;;;;;;;;;6.20;6.20;;;;;14.77;44.64;99781.16;5051175;28;8841;-74
2023/05/04 07:30:07;;;;;;;;;9.20;7.40;;;;;14.75;44.71;99785.66;5050915;28;8880;-76
2023/05/04 07:32:35;;;;;;;;;7.00;6.80;;;;;14.80;44.79;99783.72;5050795;28;8853;-76
2023/05/04 07:35:05;;;;;;;;;8.00;7.80;;;;;14.85;44.69;99787.94;5064501;28;8893;-77
2023/05/04 07:37:34;;;;;;;;;5.60;5.60;;;;;14.97;44.89;99793.72;5051881;28;8922;-74
2023/05/04 07:40:04;;;;;;;;;8.60;8.60;;;;;14.84;44.52;99796.78;5069606;28;8842;-74
2023/05/04 07:42:34;;;;;;;;;5.80;5.60;;;;;15.06;44.33;99802.19;5067682;28;8954;-75
2023/05/04 07:45:07;;;;;;;;;6.60;6.40;;;;;15.13;44.22;99808.16;5067826;28;8895;-73
2023/05/04 07:47:36;;;;;;;;;7.40;7.40;;;;;15.24;43.90;99811.28;5067945;28;8897;-75
2023/05/04 07:50:06;;;;;;;;;7.60;7.60;;;;;15.26;43.55;99813.84;5034595;28;9683;-74
2023/05/04 07:52:35;;;;;;;;;8.00;7.00;;;;;15.30;43.44;99812.81;5067923;28;8867;-73
2023/05/04 07:55:05;;;;;;;;;7.20;7.20;;;;;15.40;43.14;99816.03;5001649;28;8918;-75
2023/05/04 07:57:34;;;;;;;;;7.20;7.20;;;;;15.46;43.00;99813.13;5031015;28;8878;-74
2023/05/04 08:00:06;;;;;;;;;5.40;5.40;;;;;15.53;42.72;99827.88;5047511;28;8850;-75
2023/05/04 08:02:40;;;;;;;;;6.80;6.80;;;;;15.64;42.54;99833.69;5016327;28;8854;-73
2023/05/04 08:05:10;;;;;;;;;5.00;5.00;;;;;15.69;41.51;99828.19;5047670;28;8939;-75
2023/05/04 08:07:39;;;;;;;;;6.80;6.80;;;;;15.64;41.70;99831.03;5065591;28;8954;-74
2023/05/04 08:10:08;;;;;;;;;4.80;4.80;;;;;15.57;41.49;99829.50;5067688;28;8883;-76
2023/05/04 08:12:39;;;;;;;;;6.00;5.00;;;;;15.70;41.46;99832.59;5067462;28;8858;-75
2023/05/04 08:15:11;;;;;;;;;6.20;6.20;;;;;15.94;41.25;99845.81;5070038;28;8893;-73
2023/05/04 08:17:39;;;;;;;;;5.60;5.60;;;;;16.12;41.03;99842.47;5068746;28;8847;-74
2023/05/04 08:20:10;;;;;;;;;11.80;8.20;;;;;16.40;40.47;99839.56;5052538;28;8972;-72
2023/05/04 08:22:38;;;;;;;;;7.60;7.60;;;;;16.19;40.82;99837.75;5070154;28;8889;-76
2023/05/04 08:25:09;;;;;;;;;6.00;5.80;;;;;16.01;40.94;99842.03;5018477;28;8882;-74
2023/05/04 08:27:38;;;;;;;;;7.00;6.60;;;;;15.89;41.12;99843.38;5051676;28;8866;-74
2023/05/04 08:30:08;;;;;;;;;6.20;6.20;;;;;16.27;40.53;99841.00;5069135;28;8822;-74
2023/05/04 08:32:38;;;;;;;;;6.40;5.20;;;;;16.48;40.12;99838.44;5069478;28;8912;-73
2023/05/04 08:35:08;;;;;;;;;6.60;5.60;;;;;16.79;39.47;99849.50;5034806;28;8893;-74
2023/05/04 08:37:36;;;;;;;;;9.20;7.60;;;;;16.90;39.34;99840.22;5068734;28;8831;-77
2023/05/04 08:40:07;;;;;;;;;7.00;7.00;;;;;17.04;38.36;99845.81;5070042;28;8874;-73
2023/05/04 08:42:36;;;;;;;;;5.20;5.20;;;;;17.11;37.74;99847.25;5068899;28;8941;-74
2023/05/04 08:45:07;;;;;;;;;5.40;5.20;;;;;17.14;38.02;99854.25;5069571;28;8874;-75
2023/05/04 08:47:35;;;;;;;;;7.60;7.00;;;;;17.19;37.81;99847.81;5002727;28;8886;-75
2023/05/04 08:50:07;;;;;;;;;5.40;5.40;;;;;17.35;37.64;99848.03;5069581;28;8834;-74
2023/05/04 08:52:37;;;;;;;;;5.40;5.00;;;;;17.46;37.98;99850.22;5069315;28;8858;-76
2023/05/04 08:55:10;;;;;;;;;6.20;6.20;;;;;17.42;37.96;99847.75;5069236;28;8936;-73
2023/05/04 08:57:43;;;;;;;;;6.00;6.00;;;;;17.49;37.58;99846.53;5033854;28;8866;-74
2023/05/04 09:00:16;;;;;;;;;5.00;5.00;;;;;17.51;37.53;99842.91;5068023;28;8973;-74
2023/05/04 09:02:46;;;;;;;;;6.20;5.80;;;;;17.67;37.10;99852.84;5069505;28;8851;-73
2023/05/04 09:05:18;;;;;;;;;6.60;6.60;;;;;17.77;37.26;99854.13;5067946;28;8886;-74
2023/05/04 09:07:49;;;;;;;;;7.00;5.80;;;;;17.83;36.63;99845.84;5068036;28;8866;-75
2023/05/04 09:10:19;;;;;;;;;5.40;5.40;;;;;17.83;36.50;99847.66;5018365;28;8866;-73
2023/05/04 09:12:49;;;;;;;;;6.20;5.00;;;;;17.95;36.89;99853.28;5068007;28;8850;-74
2023/05/04 09:15:20;;;;;;;;;8.20;7.40;;;;;18.20;36.77;99845.97;5067689;28;8955;-75
2023/05/04 09:17:57;;;;;;;;;8.00;6.40;;;;;18.33;36.39;99842.63;5068944;28;8935;-73
2023/05/04 09:20:28;;;;;;;;;7.60;6.60;;;;;18.34;36.34;99844.34;5069175;28;8854;-72
2023/05/04 09:23:02;;;;;;;;;5.60;5.40;;;;;18.52;36.06;99845.25;5068774;28;8851;-74
2023/05/04 09:25:31;;;;;;;;;6.80;6.80;;;;;18.41;36.14;99841.41;5018266;28;8862;-75
2023/05/04 09:28:00;;;;;;;;;8.20;8.20;;;;;18.43;36.15;99842.19;5017803;28;8882;-76
2023/05/04 09:30:29;;;;;;;;;6.60;6.20;;;;;18.54;35.88;99834.53;5050520;28;8834;-74
2023/05/04 09:32:57;;;;;;;;;7.40;7.40;;;;;18.50;36.18;99835.63;5068970;28;8862;-72
2023/05/04 09:35:31;;;;;;;;;7.40;7.40;;;;;18.51;36.08;99837.34;5068490;28;8870;-74
2023/05/04 09:38:02;;;;;;;;;8.60;7.40;;;;;18.41;35.97;99836.94;5085914;28;8861;-73
2023/05/04 09:40:32;;;;;;;;;10.40;8.80;;;;;18.45;36.03;99835.00;5085868;28;8857;-75
2023/05/04 09:43:01;;;;;;;;;9.20;9.20;;;;;18.38;36.20;99833.56;5068947;28;8858;-74
2023/05/04 09:45:40;;;;;;;;;6.60;6.60;;;;;18.47;36.50;99838.44;5085876;28;8865;-73
2023/05/04 09:48:16;;;;;;;;;7.00;7.00;;;;;18.42;36.56;99829.81;5085664;28;8854;-75
2023/05/04 09:50:52;;;;;;;;;8.00;8.00;;;;;18.33;36.56;99831.13;5085749;28;8850;-73
2023/05/04 09:53:23;;;;;;;;;6.60;6.00;;;;;18.15;36.86;99833.72;5045548;28;8892;-75
2023/05/04 09:56:13;;;;;;;;;8.00;7.40;;;;;18.22;37.14;99829.00;5045456;28;8920;-74
2023/05/04 09:58:42;;;;;;;;;8.60;8.40;;;;;17.86;38.03;99824.44;5025552;28;8963;-74
2023/05/04 10:01:11;;;;;;;;;8.00;8.00;;;;;17.88;38.29;99824.38;4992878;28;8871;-74
2023/05/04 10:03:41;;;;;;;;;8.40;8.40;;;;;17.85;38.13;99827.19;4992781;28;8981;-75
2023/05/04 10:06:12;;;;;;;;;6.80;6.80;;;;;17.98;38.50;99826.50;5025735;28;8872;-74
2023/05/04 10:08:41;;;;;;;;;8.80;8.80;;;;;17.98;38.47;99829.19;5025493;28;8864;-74
2023/05/04 10:11:10;;;;;;;;;8.40;7.60;;;;;18.07;38.22;99830.59;5025720;28;8849;-75
2023/05/04 10:13:38;;;;;;;;;11.60;9.60;;;;;18.17;37.71;99833.66;5025333;28;8910;-73
2023/05/04 10:16:23;;;;;;;;;8.60;8.60;;;;;18.39;37.30;99822.84;5025278;28;8863;-73
2023/05/04 10:19:37;;;;;;;;;7.60;5.40;;;;;18.33;37.01;99820.50;5025570;28;8921;-75
2023/05/04 10:22:23;;;;;;;;;8.00;8.00;;;;;18.15;37.18;99819.56;4947053;28;8893;-76
2023/05/04 10:25:18;;;;;;;;;8.00;8.00;;;;;18.10;37.43;99817.16;4955584;28;8857;-74
2023/05/04 10:28:00;;;;;;;;;9.80;8.60;;;;;18.08;37.96;99810.16;4940900;28;8864;-76
2023/05/04 10:30:30;;;;;;;;;7.00;6.40;;;;;17.89;38.02;99808.38;4955280;28;8939;-75
2023/05/04 10:33:01;;;;;;;;;7.20;7.20;;;;;18.06;37.80;99812.91;4997811;28;8858;-75
2023/05/04 10:35:30;;;;;;;;;11.40;11.40;;;;;18.00;38.43;99812.28;5005250;28;8863;-73
2023/05/04 10:38:01;;;;;;;;;9.20;9.00;;;;;17.96;38.57;99815.09;4972701;28;8870;-73
2023/05/04 10:40:36;;;;;;;;;9.40;9.40;;;;;17.98;38.45;99807.03;5005262;28;9588;-75
2023/05/04 10:43:07;;;;;;;;;9.40;8.20;;;;;17.82;38.50;99801.59;5005066;28;8862;-74
2023/05/04 10:45:37;;;;;;;;;8.60;8.60;;;;;17.93;38.14;99806.38;4972647;28;8866;-74
2023/05/04 10:48:07;;;;;;;;;9.20;9.20;;;;;17.97;37.84;99792.88;5005194;28;9585;-74
2023/05/04 10:50:43;;;;;;;;;10.60;10.60;;;;;18.10;37.98;99794.97;4972551;28;8858;-74
2023/05/04 10:53:15;;;;;;;;;14.00;12.80;;;;;18.15;38.28;99792.97;5005397;28;8862;-75
2023/05/04 10:55:46;;;;;;;;;12.20;12.20;;;;;18.15;38.43;99787.66;4956306;28;8873;-73
2023/05/04 10:58:18;;;;;;;;;10.60;10.60;;;;;18.29;38.62;99789.63;5016833;28;8858;-76
2023/05/04 11:00:50;;;;;;;;;10.60;9.00;;;;;17.55;37.51;99791.31;5066395;28;8848;-74
2023/05/04 11:03:20;;;;;;;;;8.80;8.80;;;;;17.22;38.67;99798.13;5067302;28;8871;-74
2023/05/04 11:05:51;;;;;;;;;11.20;11.20;;;;;17.26;38.39;99792.63;5048224;28;9009;-74
2023/05/04 11:08:23;;;;;;;;;10.40;9.00;;;;;17.56;38.28;99795.69;5067274;28;8868;-75
2023/05/04 11:11:01;;;;;;;;;8.80;8.80;;;;;17.91;37.92;99797.63;5066976;28;8932;-74
2023/05/04 11:13:31;;;;;;;;;9.60;9.60;;;;;17.98;37.42;99801.72;5067235;28;8850;-74
2023/05/04 11:16:00;;;;;;;;;15.40;15.40;;;;;17.96;37.20;99788.50;5067122;28;8870;-75
2023/05/04 11:18:29;;;;;;;;;11.20;11.20;;;;;16.26;39.95;99795.97;5065685;28;8918;-73
2023/05/04 11:20:58;;;;;;;;;10.00;9.60;;;;;15.77;41.35;99796.09;5066531;28;8846;-73
2023/05/04 11:23:29;;;;;;;;;10.40;9.00;;;;;16.16;40.34;99796.31;5066350;28;8928;-74
2023/05/04 11:25:58;;;;;;;;;8.40;8.40;;;;;16.51;40.30;99799.38;5067540;28;8870;-74
2023/05/04 11:28:34;;;;;;;;;12.40;12.00;;;;;16.84;39.86;99801.53;5066368;28;8838;-74
2023/05/04 11:31:12;;;;;;;;;11.00;11.00;;;;;17.00;39.11;99805.25;5032740;28;8866;-73
2023/05/04 11:33:46;;;;;;;;;12.20;12.00;;;;;17.31;38.49;99797.75;5067213;28;8843;-74
2023/05/04 11:36:16;;;;;;;;;10.40;10.40;;;;;17.61;37.78;99806.13;5067009;28;9005;-73
2023/05/04 11:38:46;;;;;;;;;11.20;11.20;;;;;17.86;37.56;99797.00;5067122;28;8846;-75
2023/05/04 11:41:15;;;;;;;;;9.40;9.40;;;;;18.15;37.04;99795.63;5065596;28;8989;-73
2023/05/04 11:43:45;;;;;;;;;8.60;8.60;;;;;18.44;36.68;99798.66;5067153;28;8847;-73
2023/05/04 11:46:16;;;;;;;;;8.60;8.60;;;;;18.62;36.53;99795.06;5066633;28;8884;-75